Terminal Aerodrome Forecast
Issued by NWS

Home | Current Version | Previous Version | Text Only | Print | Product List | Glossary On
Versions: 1 2 3 4 5 6 7 8 9 10 11 12 13 14 15 16 17 18 19 20 21 22 23 24 25 26 27 28 29 30 31 32 33 34
000
FTUS42 TJSJ 210006 RRA
TAFKPK
TAF
TKPK 210006Z 2100/2124 14010KT P6SM VCTS SCT015CB BKN035
     FM210300 13012KT P6SM VCSH SCT025 BKN045
      AMD NOT SKED=

USA.gov is the U.S. government's official web portal to all federal, state and local government web resources and services.